Briscoe, Texas
Current Conditions -  °F | °C
As of 11:15 AM on Saturday 20 Dec 2014 (Local Time) from KHHF Reporting Station
Overcast Overcast  
Wind Chill: 39°   Ceiling: 1500
Heat Index: 44°   Visibility: 10mi
Dew Point: 38°   Wind: 9mph
Humidity: 80%   Direction: 220°SW
Pressure: 30.13"   Gusts: NA
Location:  35.58°N, 100.29°W
Report Text: KHHF 201715Z AUTO 22008KT 10SM OVC015 07/03 A3013 RMK AO2 T00670034
Loading
Personal Weather Stations






























Interactive Weather Map New forecast layout! Learn more

10-Day Weather Forecast

Advertisements
Track Severe Weather on mobile